Juan De La Cosa — ECJE — position and weather

sailwx.info

Track history (hours):
 
Tides and Currents Weather Stations Pressure Air Temp Water Temp Dewpoint Dewpoint Depression Visibility Wind Speed Wind Dir Waves Ship Positions

Juan De La Cosa

Last reported at 2014-Oct-30 23:18 UTC. Time now 2014-Oct-30 23:42 UTC.
Position N 44°10' W 002°45'.

Length 75 m; draft 4.5 m.

Type: Medical transport. MMSI: 224612000.

Date/timePositionNaut miles runAvg speedWind from/ knotsBaromVisibWave heightAir tempDewpointWater temp
2014-Oct-30 23:18N 44°10' W 002°45'6 7.5
2014-Oct-30 22:33N 44°14' W 002°39'8 7.7
2014-Oct-30 21:33N 44°21' W 002°39'15 6.9
2014-Oct-30 19:26N 44°27' W 002°20'15 7.6
2014-Oct-30 17:30N 44°38' W 002°06'3 3.5
2014-Oct-30 16:33N 44°40' W 002°02'8 7.9
2014-Oct-30 15:33N 44°39' W 002°13'8 8.1
2014-Oct-30 14:33N 44°38' W 002°25'6 5.4
2014-Oct-30 13:25N 44°36' W 002°16'5 6.1
2014-Oct-30 12:33N 44°31' W 002°14'6 6.1
2014-Oct-30 11:33N 44°29' W 002°06'6 6.3
2014-Oct-30 10:33N 44°26' W 001°58'6 6.2
2014-Oct-30 09:33N 44°23' W 001°50'4 3.9
2014-Oct-30 08:33N 44°22' W 001°45'6 5.9
2014-Oct-30 07:34N 44°27' W 001°43'6 5.9
2014-Oct-30 06:34N 44°33' W 001°41'6 5.8
2014-Oct-30 05:33N 44°39' W 001°40'1 0.6
2014-Oct-30 04:33N 44°39' W 001°39'7 6.5
2014-Oct-30 03:33N 44°33' W 001°39'7 6.8
2014-Oct-30 02:33N 44°26' W 001°40'7 6.7
2014-Oct-30 01:33N 44°19' W 001°40'7 6.4
2014-Oct-30 00:31N 44°13' W 001°41'6 6.3
2014-Oct-29 23:32N 44°07' W 001°44'7 3.1
2014-Oct-29 21:19N 44°01' W 001°48'24 6.0
2014-Oct-29 17:20N 44°24' W 001°45'2 1.4
2014-Oct-29 16:11N 44°23' W 001°43'4 6.0
2014-Oct-29 15:33N 44°20' W 001°41'2 0.7
2014-Oct-29 13:05N 44°18' W 001°42'4 4.9
2014-Oct-29 12:16N 44°22' W 001°44'4 5.6
2014-Oct-29 11:33N 44°25' W 001°41'6 5.9
2014-Oct-29 10:33N 44°20' W 001°44'6 6.2
2014-Oct-29 09:33N 44°14' W 001°46'4 3.6
2014-Oct-29 08:33N 44°17' W 001°47'3 2.9
2014-Oct-29 07:33N 44°15' W 001°46'5 5.2
2014-Oct-29 06:33N 44°10' W 001°48'3 3.3
2014-Oct-29 05:33N 44°13' W 001°46'4 3.6
2014-Oct-29 04:33N 44°11' W 001°42'3 2.3
2014-Oct-29 03:15N 44°08' W 001°41'5 1.9
2014-Oct-29 00:29N 44°05' W 001°46'2 2.4
2014-Oct-28 23:33N 44°07' W 001°45'7 6.5
2014-Oct-28 22:33N 44°01' W 001°45'32 2.5
2014-Oct-28 09:30N 43°31' W 002°02'14 5.6
2014-Oct-28 07:04N 43°41' W 001°49'38 6.8
2014-Oct-28 01:31N 44°19' W 001°47'14 6.6
2014-Oct-27 23:26N 44°33' W 001°47'5 5.7
2014-Oct-27 22:33N 44°38' W 001°48'6 5.6
2014-Oct-27 21:33N 44°43' W 001°51'5 5.4
2014-Oct-27 20:33N 44°48' W 001°51'6 6.4
2014-Oct-27 19:33N 44°55' W 001°50'6 6.4
2014-Oct-27 18:33N 45°01' W 001°49'6 6.2
2014-Oct-27 17:33N 45°07' W 001°49'7 6.0
2014-Oct-27 16:24N 45°11' W 001°57'7 6.1
2014-Oct-27 15:18N 45°15' W 002°05'5 6.0
2014-Oct-27 14:31N 45°17' W 002°11'6 5.9
2014-Oct-27 13:30N 45°20' W 002°19'5 5.6
2014-Oct-27 12:33N 45°22' W 002°25'6 5.5
2014-Oct-27 11:33N 45°23' W 002°33'5 5.4
2014-Oct-27 10:33N 45°23' W 002°41'5 5.4
2014-Oct-27 09:33N 45°23' W 002°48'5 5.4
2014-Oct-27 08:33N 45°23' W 002°56'6 5.5
2014-Oct-27 07:33N 45°23' W 003°04'7 6.0
2014-Oct-27 06:26N 45°23' W 003°14'5 5.9
2014-Oct-27 05:33N 45°19' W 003°10'7 6.3
2014-Oct-27 04:28N 45°14' W 003°04'31 6.3
2014-Oct-26 23:29N 44°60' W 002°24'6 6.3
2014-Oct-26 22:32N 44°57' W 002°16'7 6.3
2014-Oct-26 21:30N 44°52' W 002°11'8 5.8
2014-Oct-26 20:06N 44°44' W 002°09'3 5.8
2014-Oct-26 19:33N 44°41' W 002°08'4 3.9
2014-Oct-26 18:33N 44°37' W 002°08'7 4.6
2014-Oct-26 17:03N 44°43' W 002°06'5 2.8
2014-Oct-26 15:19N 44°39' W 002°07'28 5.6
2014-Oct-26 10:23N 44°11' W 002°04'28 3.2
2014-Oct-26 01:33N 44°39' W 002°01'6 5.9
2014-Oct-26 00:33N 44°45' W 002°03'7 5.9
2014-Oct-25 23:23N 44°51' W 002°08'5 5.8
2014-Oct-25 22:33N 44°55' W 002°12'6 5.6
2014-Oct-25 21:33N 44°59' W 002°17'28 1.3
2014-Oct-24 23:29N 45°19' W 002°47'6 6.2
2014-Oct-24 22:27N 45°16' W 002°38'6 6.3
2014-Oct-24 21:33N 45°14' W 002°31'6 6.1
2014-Oct-24 20:31N 45°12' W 002°22'6 6.3
2014-Oct-24 19:33N 45°10' W 002°14'6 6.3
2014-Oct-24 18:33N 45°08' W 002°06'6 6.2
2014-Oct-24 17:33N 45°07' W 001°57'6 6.2
2014-Oct-24 16:33N 45°05' W 001°49'6 5.9
2014-Oct-24 15:33N 45°04' W 001°40'2 2.2
2014-Oct-24 14:33N 45°04' W 001°37'5 4.5
2014-Oct-24 13:33N 45°04' W 001°31'4 4.3
2014-Oct-24 12:33N 45°01' W 001°27'1110.7
2014-Oct-24 11:33N 44°50' W 001°31'1111.1
2014-Oct-24 10:33N 44°40' W 001°38'1111.1
2014-Oct-24 09:33N 44°30' W 001°43'1111.1
2014-Oct-24 08:33N 44°19' W 001°46'1111.2
2014-Oct-24 07:33N 44°08' W 001°47'1111.3
2014-Oct-24 06:34N 43°57' W 001°47'9 8.8
2014-Oct-24 05:33N 43°48' W 001°47'9 4.7
2014-Oct-24 03:33N 43°39' W 001°49'8 5.9
2014-Oct-24 02:13N 43°46' W 001°45'0 0.4
2014-Oct-24 01:26N 43°46' W 001°45'4 4.6
2014-Oct-24 00:33N 43°42' W 001°46'40 3.8
2014-Oct-23 14:13N 44°21' W 001°40'31 6.0
2014-Oct-23 09:06N 43°50' W 001°40'13 2.7
2014-Oct-23 04:15N 44°04' W 001°40'23 1.5
2014-Oct-22 12:21N 44°27' W 001°41'5 6.1
2014-Oct-22 11:33N 44°22' W 001°41'19 6.1
2014-Oct-22 08:22N 44°03' W 001°42'19 0.6
2014-Oct-20 23:28N 44°21' W 001°40'  
Track history (hours):
 
Tides and Currents Weather Stations Pressure Air Temp Water Temp Dewpoint Dewpoint Depression Visibility Wind Speed Wind Dir Waves Ship Positions

Juan De La Cosa

Last reported at 2014-Oct-30 23:18 UTC. Time now 2014-Oct-30 23:42 UTC.
Position N 44°10' W 002°45'.

Length 75 m; draft 4.5 m.

Type: Medical transport. MMSI: 224612000.

Date/timePositionNaut miles runAvg speedWind from/ knotsBaromVisibWave heightAir tempDewpointWater temp
2014-Oct-30 23:18N 44°10' W 002°45'6 7.5
2014-Oct-30 22:33N 44°14' W 002°39'8 7.7
2014-Oct-30 21:33N 44°21' W 002°39'15 6.9
2014-Oct-30 19:26N 44°27' W 002°20'15 7.6
2014-Oct-30 17:30N 44°38' W 002°06'3 3.5
2014-Oct-30 16:33N 44°40' W 002°02'8 7.9
2014-Oct-30 15:33N 44°39' W 002°13'8 8.1
2014-Oct-30 14:33N 44°38' W 002°25'6 5.4
2014-Oct-30 13:25N 44°36' W 002°16'5 6.1
2014-Oct-30 12:33N 44°31' W 002°14'6 6.1
2014-Oct-30 11:33N 44°29' W 002°06'6 6.3
2014-Oct-30 10:33N 44°26' W 001°58'6 6.2
2014-Oct-30 09:33N 44°23' W 001°50'4 3.9
2014-Oct-30 08:33N 44°22' W 001°45'6 5.9
2014-Oct-30 07:34N 44°27' W 001°43'6 5.9
2014-Oct-30 06:34N 44°33' W 001°41'6 5.8
2014-Oct-30 05:33N 44°39' W 001°40'1 0.6
2014-Oct-30 04:33N 44°39' W 001°39'7 6.5
2014-Oct-30 03:33N 44°33' W 001°39'7 6.8
2014-Oct-30 02:33N 44°26' W 001°40'7 6.7
2014-Oct-30 01:33N 44°19' W 001°40'7 6.4
2014-Oct-30 00:31N 44°13' W 001°41'6 6.3
2014-Oct-29 23:32N 44°07' W 001°44'7 3.1
2014-Oct-29 21:19N 44°01' W 001°48'24 6.0
2014-Oct-29 17:20N 44°24' W 001°45'2 1.4
2014-Oct-29 16:11N 44°23' W 001°43'4 6.0
2014-Oct-29 15:33N 44°20' W 001°41'2 0.7
2014-Oct-29 13:05N 44°18' W 001°42'4 4.9
2014-Oct-29 12:16N 44°22' W 001°44'4 5.6
2014-Oct-29 11:33N 44°25' W 001°41'6 5.9
2014-Oct-29 10:33N 44°20' W 001°44'6 6.2
2014-Oct-29 09:33N 44°14' W 001°46'4 3.6
2014-Oct-29 08:33N 44°17' W 001°47'3 2.9
2014-Oct-29 07:33N 44°15' W 001°46'5 5.2
2014-Oct-29 06:33N 44°10' W 001°48'3 3.3
2014-Oct-29 05:33N 44°13' W 001°46'4 3.6
2014-Oct-29 04:33N 44°11' W 001°42'3 2.3
2014-Oct-29 03:15N 44°08' W 001°41'5 1.9
2014-Oct-29 00:29N 44°05' W 001°46'2 2.4
2014-Oct-28 23:33N 44°07' W 001°45'7 6.5
2014-Oct-28 22:33N 44°01' W 001°45'32 2.5
2014-Oct-28 09:30N 43°31' W 002°02'14 5.6
2014-Oct-28 07:04N 43°41' W 001°49'38 6.8
2014-Oct-28 01:31N 44°19' W 001°47'14 6.6
2014-Oct-27 23:26N 44°33' W 001°47'5 5.7
2014-Oct-27 22:33N 44°38' W 001°48'6 5.6
2014-Oct-27 21:33N 44°43' W 001°51'5 5.4
2014-Oct-27 20:33N 44°48' W 001°51'6 6.4
2014-Oct-27 19:33N 44°55' W 001°50'6 6.4
2014-Oct-27 18:33N 45°01' W 001°49'6 6.2
2014-Oct-27 17:33N 45°07' W 001°49'7 6.0
2014-Oct-27 16:24N 45°11' W 001°57'7 6.1
2014-Oct-27 15:18N 45°15' W 002°05'5 6.0
2014-Oct-27 14:31N 45°17' W 002°11'6 5.9
2014-Oct-27 13:30N 45°20' W 002°19'5 5.6
2014-Oct-27 12:33N 45°22' W 002°25'6 5.5
2014-Oct-27 11:33N 45°23' W 002°33'5 5.4
2014-Oct-27 10:33N 45°23' W 002°41'5 5.4
2014-Oct-27 09:33N 45°23' W 002°48'5 5.4
2014-Oct-27 08:33N 45°23' W 002°56'6 5.5
2014-Oct-27 07:33N 45°23' W 003°04'7 6.0
2014-Oct-27 06:26N 45°23' W 003°14'5 5.9
2014-Oct-27 05:33N 45°19' W 003°10'7 6.3
2014-Oct-27 04:28N 45°14' W 003°04'31 6.3
2014-Oct-26 23:29N 44°60' W 002°24'6 6.3
2014-Oct-26 22:32N 44°57' W 002°16'7 6.3
2014-Oct-26 21:30N 44°52' W 002°11'8 5.8
2014-Oct-26 20:06N 44°44' W 002°09'3 5.8
2014-Oct-26 19:33N 44°41' W 002°08'4 3.9
2014-Oct-26 18:33N 44°37' W 002°08'7 4.6
2014-Oct-26 17:03N 44°43' W 002°06'5 2.8
2014-Oct-26 15:19N 44°39' W 002°07'28 5.6
2014-Oct-26 10:23N 44°11' W 002°04'28 3.2
2014-Oct-26 01:33N 44°39' W 002°01'6 5.9
2014-Oct-26 00:33N 44°45' W 002°03'7 5.9
2014-Oct-25 23:23N 44°51' W 002°08'5 5.8
2014-Oct-25 22:33N 44°55' W 002°12'6 5.6
2014-Oct-25 21:33N 44°59' W 002°17'28 1.3
2014-Oct-24 23:29N 45°19' W 002°47'6 6.2
2014-Oct-24 22:27N 45°16' W 002°38'6 6.3
2014-Oct-24 21:33N 45°14' W 002°31'6 6.1
2014-Oct-24 20:31N 45°12' W 002°22'6 6.3
2014-Oct-24 19:33N 45°10' W 002°14'6 6.3
2014-Oct-24 18:33N 45°08' W 002°06'6 6.2
2014-Oct-24 17:33N 45°07' W 001°57'6 6.2
2014-Oct-24 16:33N 45°05' W 001°49'6 5.9
2014-Oct-24 15:33N 45°04' W 001°40'2 2.2
2014-Oct-24 14:33N 45°04' W 001°37'5 4.5
2014-Oct-24 13:33N 45°04' W 001°31'4 4.3
2014-Oct-24 12:33N 45°01' W 001°27'1110.7
2014-Oct-24 11:33N 44°50' W 001°31'1111.1
2014-Oct-24 10:33N 44°40' W 001°38'1111.1
2014-Oct-24 09:33N 44°30' W 001°43'1111.1
2014-Oct-24 08:33N 44°19' W 001°46'1111.2
2014-Oct-24 07:33N 44°08' W 001°47'1111.3
2014-Oct-24 06:34N 43°57' W 001°47'9 8.8
2014-Oct-24 05:33N 43°48' W 001°47'9 4.7
2014-Oct-24 03:33N 43°39' W 001°49'8 5.9
2014-Oct-24 02:13N 43°46' W 001°45'0 0.4
2014-Oct-24 01:26N 43°46' W 001°45'4 4.6
2014-Oct-24 00:33N 43°42' W 001°46'40 3.8
2014-Oct-23 14:13N 44°21' W 001°40'31 6.0
2014-Oct-23 09:06N 43°50' W 001°40'13 2.7
2014-Oct-23 04:15N 44°04' W 001°40'23 1.5
2014-Oct-22 12:21N 44°27' W 001°41'5 6.1
2014-Oct-22 11:33N 44°22' W 001°41'19 6.1
2014-Oct-22 08:22N 44°03' W 001°42'19 0.6
2014-Oct-20 23:28N 44°21' W 001°40'  

Dump ship's entire track history